AirNav   Advertisement
 
 1602 users online  

FL85 Baptist Hospital Heliport
Pensacola, Florida, USA

GOING TO PENSACOLA?


FAA INFORMATION EFFECTIVE 20 JULY 2017

Location

FAA Identifier: FL85
Lat/Long: 30-25-45.7110N / 087-13-51.8950W
30-25.761850N / 087-13.864917W
30.4293642 / -87.2310819
(estimated)
Elevation: 115 ft. / 35 m (estimated)
Variation: 01E (1985)
Time zone: UTC -5 (UTC -6 during Standard Time)
Zip code: 32501

Heliport Operations

Heliport use: Private use. Permission required prior to landing
Activation date: 01/1974
Control tower: no
ARTCC: JACKSONVILLE CENTER
FSS: GAINESVILLE FLIGHT SERVICE STATION
Attendance: CONTINUOUS
Wind indicator: yes
Segmented circle: no
Beacon: white-green-yellow (heliport)
24 HRS

Heliport Communications

WX ASOS at PNS (4 nm NE): PHONE 850-436-4799
  • 122.825 USED INFREQUENTLY FOR COMMUNICATIONS.

Nearby radio navigation aids

VOR radial/distance  VOR name  Freq  Var
NUNr114/(6.0)SAUFLEY VOR108.8001E
CEWr227/37.1CRESTVIEW VORTAC115.9003E

 
NDB name  Hdg/Dist  Freq  Var  ID
PICKENS262/2.832602WPKZ .--. -.- --..

Heliport Services

Airframe service: NONE
Powerplant service: NONE

Runway Information

Helipad H1

Dimensions: 52 x 52 ft. / 16 x 16 m
Surface: concrete
Runway edge lights: PERIMETER LGTS.
Latitude: 30-25.776833N
Longitude: 087-13.844000W
Elevation: 115.0 ft.
Traffic pattern: rightleft

Heliport Ownership and Management from official FAA records

Ownership: Privately-owned
Owner: BAPTIST HOSPITAL
1000 W MORENO ST
PENSACOLA, FL 32501
Phone (850) 469-2304
Manager: DAVID KOVACH
1000 W MORENO ST
PENSACOLA, FL 32501
Phone (850) 469-2304

Heliport Operational Statistics

Aircraft based on the field: 2
Single engine airplanes: 1
Helicopters: 1
    

Additional Remarks

A52-H1 PLINES EAST OF FACILITY.

Instrument Procedures

There are no published instrument procedures at FL85.

Some nearby airports with instrument procedures:

KPNS - Pensacola International Airport (4 nm NE)
KNPA - Pensacola Naval Air Station/Forrest Sherman Field (6 nm SW)
2R4 - Peter Prince Field Airport (18 nm NE)
KNDZ - Whiting Field Naval Air Station South (20 nm NE)
KNSE - Whiting Field Naval Air Station North (21 nm NE)
 
Loc | Ops | Rwys | IFR | FBO | Links
Com | Nav | Svcs | Stats | Notes

Gulf Air Center
AirBoss

 
Area around FL85 (Baptist Hospital Heliport)
 
Road maps at: MapQuest Bing Google
 
Aerial photo
No photo
 
Sectional chart

 
Airport distance calculator
Flying to Baptist Hospital Heliport? Find the distance to fly.

From to FL85

Sunrise and sunset
Times for 26-Jul-2017
 Local
(UTC-5)
 Zulu
(UTC)
Morning civil twilight05:3810:38
Sunrise06:0411:04
Sunset19:4600:46
Evening civil twilight20:1301:13

Current date and time
Zulu (UTC)  26-Jul-2017 20:06:47
Local (UTC-5)  26-Jul-2017 15:06:47
 
METAR
KPNS 
4nm NE 
261953Z 33006KT 10SM CLR 35/23 A3006 RMK AO2 SLP179 T03500233
KNPA 
7nm SW 
261956Z 22011KT 10SM SCT040 SCT150 32/26 A3006 RMK AO2 SLP180 T03170256 $
2R4 
18nm NE 
SuperAWOS
261935Z AUTO 36004KT 34/25 A3005
KNDZ 
20nm NE 
261956Z 36004KT 10SM FEW042TCU SCT055 BKN150 34/25 A3005 RMK AO2 SLP160 TCU OHD T03390250 $
TAF
KPNS 
4nm NE 
261734Z 2618/2718 01005KT P6SM SCT020 BKN030 FM262100 21008KT P6SM SCT020 BKN030 FM270200 VRB03KT P6SM SCT040
KNPA 
7nm SW 
2523/2623 22005KT 9999 SCT035 SCT080 BKN150 BKN250 QNH3004INS FM260100 VRB04KT 9999 VCSH SCT035 SCT150 BKN250 QNH3006INS TEMPO 2601/2606 8000 SHRA SCT025 BKN035 OVC060 FM261400 36004KT 9999 VCTS SCT030CB SCT080 BKN150 BKN250 QNH3010INS TEMPO 2614/2618 VRB12G20KT 1600 +TSRA BR SCT015 BKN025CB OVC050 FM261800 18008KT 9999 VCTS SCT035CB BKN080 BKN150 BKN250 QNH3003INS AUTOMATED SENSOR METWATCH 2603 TIL 2611 T24/2612Z T31/2620Z COR 2349Z FN20034
NOTAMs
Click for the latest NOTAMs
NOTAMs are issued by the DoD/FAA and will open in a separate window not controlled by AirNav.

 

 
 

Would you like to see your business listed on this page?

 If your business provides an interesting product or service to pilots, flight crews, aircraft, or users of the Baptist Hospital Heliport, you should consider listing it here.  To start the listing process, click on the button below
 
Add a business
 

Other Pages about Baptist Hospital Heliport

Update a link
 
Copyright © AirNav, LLC. All rights reserved. Privacy Policy  Contact